createdAt,value
2017-04-05T00:00:06.607Z,9.98
2017-04-05T00:01:07.732Z,9.65
2017-04-05T00:02:08.557Z,10.28
2017-04-05T00:03:08.634Z,11.45
2017-04-05T00:04:08.746Z,11.10
2017-04-05T00:05:08.824Z,9.87
2017-04-05T00:06:10.001Z,10.18
2017-04-05T00:07:10.042Z,11.80
2017-04-05T00:08:10.071Z,10.25
2017-04-05T00:09:10.114Z,10.72
2017-04-05T00:10:10.266Z,11.05
2017-04-05T00:11:10.674Z,11.52
2017-04-05T00:12:10.686Z,12.18
2017-04-05T00:13:10.800Z,11.30
2017-04-05T00:14:10.848Z,12.42
2017-04-05T00:15:11.011Z,10.98
2017-04-05T00:16:11.513Z,12.10
2017-04-05T00:17:18.939Z,11.02
2017-04-05T00:18:18.978Z,11.10
2017-04-05T00:19:19.025Z,11.30
2017-04-05T00:20:19.073Z,12.18
2017-04-05T00:21:19.629Z,12.05
2017-04-05T00:22:19.866Z,11.22
2017-04-05T00:23:20.037Z,12.05
2017-04-05T00:24:20.092Z,11.78
2017-04-05T00:25:20.245Z,10.62
2017-04-05T00:26:20.790Z,10.93
2017-04-05T00:27:21.601Z,11.87
2017-04-05T00:28:21.714Z,10.82
2017-04-05T00:29:22.499Z,11.10
2017-04-05T00:30:22.615Z,10.40
2017-04-05T00:31:22.899Z,11.45
2017-04-05T00:32:22.967Z,12.78
2017-04-05T00:33:23.015Z,9.83
2017-04-05T00:34:23.022Z,11.22
2017-04-05T00:35:23.110Z,12.33
2017-04-05T00:36:24.228Z,11.82
2017-04-05T00:37:25.058Z,11.95
2017-04-05T00:38:25.103Z,12.33
2017-04-05T00:39:25.182Z,11.50
2017-04-05T00:40:26.012Z,12.17
2017-04-05T00:41:26.451Z,10.47
2017-04-05T00:42:26.554Z,11.63
2017-04-05T00:43:26.737Z,11.83
2017-04-05T00:44:27.538Z,10.02
2017-04-05T00:45:27.958Z,11.35
2017-04-05T00:46:28.345Z,11.00
2017-04-05T00:47:29.036Z,10.15
2017-04-05T00:48:29.295Z,10.77
2017-04-05T00:49:29.454Z,11.97
2017-04-05T00:50:30.234Z,11.42
2017-04-05T00:51:31.270Z,9.67
2017-04-05T00:52:31.328Z,11.52
2017-04-05T00:53:31.452Z,12.00
2017-04-05T00:54:31.515Z,10.95
2017-04-05T00:55:32.397Z,12.42
2017-04-05T00:56:32.962Z,10.27
2017-04-05T00:57:33.002Z,11.10
2017-04-05T00:58:33.134Z,11.38
2017-04-05T00:59:33.241Z,11.80
2017-04-05T01:00:33.258Z,11.05
2017-04-05T01:01:33.602Z,13.00
2017-04-05T01:02:33.667Z,11.28
2017-04-05T01:03:33.823Z,10.93
2017-04-05T01:04:34.744Z,11.63
2017-04-05T01:05:34.793Z,11.58
2017-04-05T01:06:35.119Z,9.77
2017-04-05T01:07:35.167Z,10.78
2017-04-05T01:08:36.001Z,12.15
2017-04-05T01:09:36.833Z,11.13
2017-04-05T01:10:37.645Z,11.67
2017-04-05T01:11:37.983Z,11.88
2017-04-05T01:12:38.769Z,10.65
2017-04-05T01:13:38.798Z,11.93
2017-04-05T01:14:38.843Z,10.55
2017-04-05T01:15:39.981Z,11.52
2017-04-05T01:16:40.360Z,11.65
2017-04-05T01:17:40.429Z,11.93
2017-04-05T01:18:40.530Z,11.07
2017-04-05T01:19:40.552Z,11.18
2017-04-05T01:20:40.685Z,11.82
2017-04-05T01:21:41.942Z,10.88
2017-04-05T01:22:42.832Z,11.28
2017-04-05T01:23:42.950Z,10.63
2017-04-05T01:24:43.028Z,12.62
2017-04-05T01:25:43.131Z,11.77
2017-04-05T01:26:43.585Z,10.37
2017-04-05T01:27:43.757Z,10.93
2017-04-05T01:28:43.931Z,11.32
2017-04-05T01:29:44.006Z,10.20
2017-04-05T01:30:44.055Z,12.12
2017-04-05T01:31:44.407Z,10.80
2017-04-05T01:32:44.540Z,11.03
2017-04-05T01:33:44.825Z,11.68
2017-04-05T01:34:51.628Z,11.55
2017-04-05T01:35:51.804Z,10.27
2017-04-05T01:36:52.196Z,11.20
2017-04-05T01:37:52.346Z,11.17
2017-04-05T01:38:52.374Z,10.20
2017-04-05T01:39:52.417Z,11.02
2017-04-05T01:40:52.514Z,11.43
2017-04-05T01:41:52.930Z,9.35
2017-04-05T01:42:53.748Z,11.23
2017-04-05T01:43:54.617Z,10.93
2017-04-05T01:44:54.681Z,11.62
2017-04-05T01:45:54.865Z,12.62
2017-04-05T01:46:54.926Z,11.25
2017-04-05T01:47:55.090Z,9.67
2017-04-05T01:48:59.453Z,10.12
2017-04-05T01:50:00.583Z,11.93
2017-04-05T01:51:01.265Z,11.37
2017-04-05T01:52:02.371Z,11.58
2017-04-05T01:53:02.609Z,11.32
2017-04-05T01:54:03.494Z,11.47
2017-04-05T01:55:03.615Z,11.27
2017-04-05T01:56:03.630Z,10.68
2017-04-05T01:57:04.281Z,11.60
2017-04-05T01:58:05.094Z,11.08
2017-04-05T01:59:05.133Z,10.98
2017-04-05T02:00:05.349Z,11.02
2017-04-05T02:01:05.415Z,11.22
2017-04-05T02:02:06.553Z,10.55
2017-04-05T02:03:06.743Z,11.82
2017-04-05T02:04:06.797Z,11.52
2017-04-05T02:05:06.950Z,11.38
2017-04-05T02:06:07.058Z,10.33
2017-04-05T02:07:07.414Z,12.02
2017-04-05T02:08:07.498Z,10.77
2017-04-05T02:09:07.657Z,10.20
2017-04-05T02:10:07.754Z,10.87
2017-04-05T02:11:07.808Z,11.20
2017-04-05T02:12:08.197Z,9.65
2017-04-05T02:13:08.278Z,11.17
2017-04-05T02:14:09.081Z,10.42
2017-04-05T02:15:09.896Z,11.20
2017-04-05T02:16:09.914Z,10.97
2017-04-05T02:17:10.540Z,11.93
2017-04-05T02:18:10.616Z,11.10
2017-04-05T02:19:10.688Z,11.40
2017-04-05T02:20:10.795Z,10.20
2017-04-05T02:21:10.869Z,11.27
2017-04-05T02:22:11.980Z,10.60
2017-04-05T02:23:12.005Z,11.93
2017-04-05T02:24:12.063Z,10.67
2017-04-05T02:25:12.131Z,10.27
2017-04-05T02:26:12.954Z,11.25
2017-04-05T02:27:13.575Z,10.38
2017-04-05T02:28:14.367Z,11.62
2017-04-05T02:29:14.474Z,10.97
2017-04-05T02:30:14.514Z,11.67
2017-04-05T02:31:15.286Z,11.30
2017-04-05T02:32:16.479Z,10.20
2017-04-05T02:33:17.255Z,11.85
2017-04-05T02:34:17.439Z,10.85
2017-04-05T02:35:17.569Z,10.73
2017-04-05T02:36:17.602Z,11.83
2017-04-05T02:41:57.441Z,11.57
2017-04-05T02:42:57.812Z,9.97
2017-04-05T02:43:57.825Z,10.68
2017-04-05T02:44:58.587Z,10.20
2017-04-05T02:45:58.650Z,11.18
2017-04-05T02:46:59.422Z,10.87
2017-04-05T02:47:59.874Z,10.92
2017-04-05T02:49:00.786Z,11.00
2017-04-05T02:50:00.821Z,11.73
2017-04-05T02:51:01.592Z,11.95
2017-04-05T02:52:01.661Z,11.67
2017-04-05T02:53:02.845Z,11.70
2017-04-05T02:54:02.895Z,12.60
2017-04-05T02:55:03.664Z,11.80
2017-04-05T02:56:03.745Z,11.90
2017-04-05T02:57:03.730Z,11.05
2017-04-05T02:58:04.350Z,13.12
2017-04-05T02:59:05.182Z,11.90
2017-04-05T03:00:06.239Z,13.77
2017-04-05T03:01:06.297Z,12.72
2017-04-05T03:02:06.325Z,11.58
2017-04-05T03:03:07.402Z,11.00
2017-04-05T03:04:07.402Z,13.65
2017-04-05T03:05:07.541Z,11.65
2017-04-05T03:06:07.614Z,12.67
2017-04-05T03:07:07.647Z,11.72
2017-04-05T03:08:08.004Z,11.13
2017-04-05T03:09:08.066Z,12.97
2017-04-05T03:10:08.068Z,13.23
2017-04-05T03:11:08.082Z,12.40
2017-04-05T03:12:08.133Z,11.58
2017-04-05T03:13:08.462Z,13.33
2017-04-05T03:14:08.553Z,12.68
2017-04-05T03:15:08.600Z,12.88
2017-04-05T03:16:08.778Z,12.73
2017-04-05T03:17:08.877Z,13.10
2017-04-05T03:18:10.026Z,13.45
2017-04-05T03:19:10.773Z,12.25
2017-04-05T03:20:10.926Z,12.20
2017-04-05T03:21:11.105Z,13.47
2017-04-05T03:22:11.131Z,12.72
2017-04-05T03:23:11.478Z,12.37
2017-04-05T03:24:11.528Z,12.32
2017-04-05T03:25:11.536Z,13.45
2017-04-05T03:26:11.505Z,13.90
2017-04-05T03:27:12.274Z,11.22
2017-04-05T03:28:12.626Z,11.20
2017-04-05T03:29:13.870Z,11.80
2017-04-05T03:30:14.642Z,13.40
2017-04-05T03:31:14.779Z,13.62
2017-04-05T03:32:14.867Z,12.88
2017-04-05T03:33:15.231Z,12.85
2017-04-05T03:34:16.055Z,12.57
2017-04-05T03:35:16.841Z,13.02
2017-04-05T03:36:16.840Z,12.92
2017-04-05T03:37:16.940Z,11.35
2017-04-05T03:38:17.376Z,12.58
2017-04-05T03:39:17.602Z,12.57
2017-04-05T03:40:17.698Z,12.60
2017-04-05T03:41:17.703Z,12.83
2017-04-05T03:42:17.677Z,12.92
2017-04-05T03:43:18.064Z,12.97
2017-04-05T03:44:18.830Z,14.55
2017-04-05T03:45:19.800Z,13.58
2017-04-05T03:46:20.576Z,12.62
2017-04-05T03:47:20.638Z,12.60
2017-04-05T03:48:21.710Z,12.28
2017-04-05T03:49:21.738Z,14.32
2017-04-05T03:50:21.748Z,12.13
2017-04-05T03:51:21.798Z,12.10
2017-04-05T03:52:21.796Z,13.05
2017-04-05T03:53:22.211Z,12.47
2017-04-05T03:54:22.332Z,12.43
2017-04-05T03:55:22.466Z,13.12
2017-04-05T03:56:22.523Z,12.32
2017-04-05T03:57:22.579Z,12.28
2017-04-05T03:58:22.920Z,12.23
2017-04-05T03:59:23.030Z,13.77
2017-04-05T04:00:23.086Z,13.23
2017-04-05T04:01:23.114Z,11.60
2017-04-05T04:02:24.633Z,14.13
2017-04-05T04:03:25.697Z,12.67
2017-04-05T04:04:25.754Z,12.70
2017-04-05T04:05:25.796Z,12.13
2017-04-05T04:06:25.800Z,13.62
2017-04-05T04:07:25.850Z,12.47
2017-04-05T04:08:26.312Z,13.48
2017-04-05T04:09:26.358Z,12.02
2017-04-05T04:10:26.537Z,12.20
2017-04-05T04:11:26.568Z,12.90
2017-04-05T04:12:26.633Z,12.73
2017-04-05T04:13:27.062Z,12.43
2017-04-05T04:14:27.853Z,12.73
2017-04-05T04:15:27.862Z,12.85
2017-04-05T04:16:27.909Z,14.10
2017-04-05T04:17:27.947Z,13.60
2017-04-05T04:18:28.536Z,13.80
2017-04-05T04:19:28.602Z,14.02
2017-04-05T04:20:28.630Z,13.67
2017-04-05T04:21:28.663Z,13.98
2017-04-05T04:22:28.701Z,13.00
2017-04-05T04:23:29.060Z,14.08
2017-04-05T04:24:29.120Z,13.17
2017-04-05T04:25:29.209Z,15.27
2017-04-05T04:26:29.209Z,14.03
2017-04-05T04:27:29.311Z,13.05
2017-04-05T04:28:29.651Z,13.92
2017-04-05T04:29:29.689Z,13.08
2017-04-05T04:30:29.707Z,14.03
2017-04-05T04:31:29.875Z,12.83
2017-04-05T04:32:29.911Z,14.40
2017-04-05T04:33:30.400Z,14.70
2017-04-05T04:34:30.450Z,15.30
2017-04-05T04:35:30.452Z,15.30
2017-04-05T04:36:30.549Z,16.00
2017-04-05T04:37:30.523Z,15.50
2017-04-05T04:38:30.998Z,15.83
2017-04-05T04:39:31.776Z,16.82
2017-04-05T04:40:31.798Z,19.07
2017-04-05T04:41:31.907Z,18.95
2017-04-05T04:42:32.677Z,17.48
2017-04-05T04:43:33.580Z,20.03
2017-04-05T04:44:33.607Z,21.75
2017-04-05T04:45:33.647Z,19.63
2017-04-05T04:46:33.710Z,20.65
2017-04-05T04:47:33.849Z,20.67
2017-04-05T04:48:35.054Z,22.87
2017-04-05T04:49:35.897Z,21.57
2017-04-05T04:50:35.881Z,21.68
2017-04-05T04:51:36.665Z,20.20
2017-04-05T04:52:36.671Z,23.03
2017-04-05T04:53:37.142Z,24.30
2017-04-05T04:54:37.910Z,21.32
2017-04-05T04:55:37.966Z,21.97
2017-04-05T04:56:37.995Z,23.47
2017-04-05T04:57:38.069Z,22.53
2017-04-05T04:58:38.593Z,24.58
2017-04-05T04:59:38.669Z,23.95
2017-04-05T05:00:38.683Z,22.73
2017-04-05T05:01:38.836Z,22.32
2017-04-05T05:02:38.918Z,23.67
2017-04-05T05:03:39.246Z,23.83
2017-04-05T05:04:40.013Z,22.28
2017-04-05T05:05:40.021Z,21.97
2017-04-05T05:06:40.185Z,24.70
2017-04-05T05:07:40.919Z,23.15
2017-04-05T05:08:42.097Z,26.08
2017-04-05T05:09:42.114Z,22.67
2017-04-05T05:10:42.318Z,22.47
2017-04-05T05:11:42.421Z,23.68
2017-04-05T05:12:42.629Z,24.35
2017-04-05T05:13:43.017Z,22.97
2017-04-05T05:14:43.037Z,22.70
2017-04-05T05:15:43.103Z,23.48
2017-04-05T05:16:43.221Z,23.97
2017-04-05T05:17:43.293Z,23.72
2017-04-05T05:18:43.900Z,23.12
2017-04-05T05:19:43.956Z,21.53
2017-04-05T05:20:44.912Z,21.93
2017-04-05T05:21:44.951Z,22.20
2017-04-05T05:22:45.039Z,22.58
2017-04-05T05:23:45.639Z,22.00
2017-04-05T05:24:45.702Z,23.55
2017-04-05T05:25:45.827Z,21.62
2017-04-05T05:26:45.942Z,21.75
2017-04-05T05:27:46.754Z,22.57
2017-04-05T05:28:47.107Z,23.12
2017-04-05T05:29:47.098Z,21.52
2017-04-05T05:30:47.194Z,22.78
2017-04-05T05:31:47.225Z,23.25
2017-04-05T05:32:48.025Z,25.27
2017-04-05T05:33:48.354Z,25.97
2017-04-05T05:34:49.138Z,24.80
2017-04-05T05:35:50.057Z,25.47
2017-04-05T05:36:50.057Z,25.45
2017-04-05T05:37:50.046Z,24.62
2017-04-05T05:38:50.349Z,25.70
2017-04-05T05:39:50.482Z,27.53
2017-04-05T05:40:50.531Z,27.17
2017-04-05T05:41:50.562Z,29.52
2017-04-05T05:42:50.620Z,30.72
2017-04-05T05:43:51.074Z,29.88
2017-04-05T05:44:51.070Z,31.77
2017-04-05T05:45:51.111Z,31.28
2017-04-05T05:46:51.218Z,27.63
2017-04-05T05:47:51.274Z,29.98
2017-04-05T05:48:51.846Z,34.38
2017-04-05T05:49:51.878Z,36.20
2017-04-05T05:50:51.950Z,34.20
2017-04-05T05:51:52.006Z,33.12
2017-04-05T05:52:52.109Z,33.43
2017-04-05T05:53:52.463Z,34.68
2017-04-05T05:54:53.635Z,35.50
2017-04-05T05:55:53.687Z,33.28
2017-04-05T05:56:53.802Z,27.52
2017-04-05T05:57:53.854Z,31.55
2017-04-05T05:58:54.266Z,34.35
2017-04-05T05:59:54.302Z,34.95
2017-04-05T06:00:54.398Z,36.77
2017-04-05T06:01:54.554Z,37.67
2017-04-05T06:02:54.645Z,36.38
2017-04-05T06:03:55.094Z,36.87
2017-04-05T06:04:55.935Z,37.98
2017-04-05T06:05:56.797Z,39.03
2017-04-05T06:06:56.884Z,37.40
2017-04-05T06:07:56.980Z,38.37
2017-04-05T06:08:57.392Z,33.13
2017-04-05T06:09:57.466Z,34.20
2017-04-05T06:10:57.498Z,35.02
2017-04-05T06:11:58.266Z,38.08
2017-04-05T06:12:58.350Z,38.92
2017-04-05T06:13:58.857Z,38.32
2017-04-05T06:14:59.227Z,35.38
2017-04-05T06:15:59.404Z,41.63
2017-04-05T06:16:59.450Z,36.18
2017-04-05T06:17:59.477Z,36.18
2017-04-05T06:18:59.907Z,36.68
2017-04-05T06:20:00.047Z,37.38
2017-04-05T06:21:00.098Z,36.30
2017-04-05T06:22:00.245Z,37.15
2017-04-05T06:23:00.258Z,39.60
2017-04-05T06:24:01.274Z,40.22
2017-04-05T06:25:01.349Z,38.12
2017-04-05T06:26:01.406Z,37.23
2017-04-05T06:27:01.429Z,40.08
2017-04-05T06:28:01.498Z,38.18
2017-04-05T06:29:02.733Z,40.55
2017-04-05T06:30:02.778Z,38.42
2017-04-05T06:31:02.975Z,38.13
2017-04-05T06:32:03.014Z,38.12
2017-04-05T06:33:03.301Z,37.67
2017-04-05T06:34:03.770Z,39.57
2017-04-05T06:35:03.842Z,37.75
2017-04-05T06:36:03.886Z,36.32
2017-04-05T06:37:03.971Z,36.30
2017-04-05T06:38:04.059Z,37.25
2017-04-05T06:39:05.259Z,36.35
2017-04-05T06:40:06.038Z,38.15
2017-04-05T06:41:06.095Z,35.93
2017-04-05T06:42:06.904Z,35.83
2017-04-05T06:43:06.943Z,37.63
2017-04-05T06:44:07.453Z,35.35
2017-04-05T06:45:07.570Z,29.83
2017-04-05T06:46:07.725Z,31.27
2017-04-05T06:47:07.806Z,38.98
2017-04-05T06:48:07.841Z,33.30
2017-04-05T06:49:08.187Z,39.52
2017-04-05T06:50:08.950Z,32.60
2017-04-05T06:51:09.194Z,31.73
2017-04-05T06:52:09.265Z,36.38
2017-04-05T06:53:09.349Z,35.23
2017-04-05T06:54:09.854Z,34.23
2017-04-05T06:55:09.884Z,27.40
2017-04-05T06:56:09.890Z,31.98
2017-04-05T06:57:09.894Z,32.58
2017-04-05T06:58:10.028Z,33.65
2017-04-05T06:59:10.355Z,31.47
2017-04-05T07:00:10.435Z,31.33
2017-04-05T07:01:10.502Z,30.28
2017-04-05T07:02:10.641Z,34.27
2017-04-05T07:03:10.822Z,29.80
2017-04-05T07:04:11.951Z,21.32
2017-04-05T07:05:12.022Z,32.73
2017-04-05T07:06:12.101Z,31.95
2017-04-05T07:07:12.128Z,35.55
2017-04-05T07:08:12.195Z,32.75
2017-04-05T07:09:12.742Z,33.63
2017-04-05T07:10:12.804Z,33.85
2017-04-05T07:11:12.882Z,29.30
2017-04-05T07:12:12.948Z,31.17
2017-04-05T07:13:13.024Z,31.02
2017-04-05T07:14:13.506Z,27.80
2017-04-05T07:15:13.582Z,32.23
2017-04-05T07:16:13.620Z,32.30
2017-04-05T07:17:13.670Z,32.53
2017-04-05T07:18:13.804Z,30.43
2017-04-05T07:19:14.204Z,26.52
2017-04-05T07:20:14.975Z,29.77
2017-04-05T07:21:15.014Z,31.07
2017-04-05T07:22:15.199Z,32.42
2017-04-05T07:23:15.328Z,32.42
2017-04-05T07:24:15.639Z,28.90
2017-04-05T07:25:15.706Z,28.17
2017-04-05T07:26:15.748Z,31.22
2017-04-05T07:27:15.963Z,28.08
2017-04-05T07:28:16.088Z,30.70
2017-04-05T07:29:16.506Z,30.27
2017-04-05T07:30:16.653Z,26.50
2017-04-05T07:31:16.739Z,31.25
2017-04-05T07:32:17.166Z,29.82
2017-04-05T07:33:17.975Z,30.05
2017-04-05T07:34:18.876Z,26.23
2017-04-05T07:35:18.953Z,25.13
2017-04-05T07:36:18.998Z,24.92
2017-04-05T07:37:19.142Z,27.77
2017-04-05T07:38:20.145Z,27.17
2017-04-05T07:39:20.600Z,28.02
2017-04-05T07:40:20.746Z,28.22
2017-04-05T07:41:21.530Z,27.67
2017-04-05T07:42:21.671Z,23.38
2017-04-05T07:43:21.821Z,25.93
2017-04-05T07:44:22.263Z,26.50
2017-04-05T07:45:23.053Z,22.88
2017-04-05T07:46:23.409Z,22.95
2017-04-05T07:47:23.678Z,19.73
2017-04-05T07:48:23.739Z,20.65
2017-04-05T07:49:24.137Z,24.12
2017-04-05T07:50:25.040Z,22.87
2017-04-05T07:51:25.132Z,26.05
2017-04-05T07:52:25.138Z,23.25
2017-04-05T07:53:25.191Z,24.98
2017-04-05T07:54:26.344Z,25.50
2017-04-05T07:55:26.397Z,21.25
2017-04-05T07:56:26.474Z,22.68
2017-04-05T07:57:26.610Z,21.90
2017-04-05T07:58:26.646Z,19.63
2017-04-05T07:59:27.907Z,19.23
2017-04-05T08:00:27.992Z,18.37
2017-04-05T08:01:28.887Z,17.85
2017-04-05T08:02:29.186Z,18.57
2017-04-05T08:03:29.247Z,17.87
2017-04-05T08:04:29.682Z,17.62
2017-04-05T08:05:29.876Z,16.45
2017-04-05T08:06:29.931Z,16.02
2017-04-05T08:07:30.064Z,15.88
2017-04-05T08:08:30.153Z,13.32
2017-04-05T08:09:30.587Z,17.90
2017-04-05T08:10:30.630Z,13.55
2017-04-05T08:11:30.882Z,13.07
2017-04-05T08:12:31.146Z,14.50
2017-04-05T08:13:31.205Z,12.55
2017-04-05T08:14:31.835Z,11.83
2017-04-05T08:15:32.104Z,9.83
2017-04-05T08:16:32.369Z,10.07
2017-04-05T08:17:32.438Z,9.43
2017-04-05T08:18:32.735Z,11.38
2017-04-05T08:19:33.248Z,13.37
2017-04-05T08:20:33.331Z,12.45
2017-04-05T08:21:34.171Z,10.40
2017-04-05T08:22:34.219Z,8.50
2017-04-05T08:23:34.311Z,10.37
2017-04-05T08:24:34.651Z,10.40
2017-04-05T08:25:34.719Z,10.10
2017-04-05T08:26:34.783Z,7.98
2017-04-05T08:27:34.902Z,6.50
2017-04-05T08:28:35.031Z,4.85
2017-04-05T08:29:36.147Z,4.53
2017-04-05T08:30:36.266Z,4.83
2017-04-05T08:31:36.254Z,5.07
2017-04-05T08:32:36.314Z,4.17
2017-04-05T08:33:36.430Z,3.70
2017-04-05T08:34:36.765Z,2.62
2017-04-05T08:35:36.822Z,2.43
2017-04-05T08:36:36.853Z,2.27
2017-04-05T08:37:36.949Z,2.87
2017-04-05T08:38:37.135Z,2.52
2017-04-05T08:39:37.668Z,2.08
2017-04-05T08:40:37.787Z,2.28
2017-04-05T08:41:37.890Z,1.58
2017-04-05T08:42:37.993Z,1.90
2017-04-05T08:43:38.104Z,1.53
2017-04-05T08:44:38.612Z,2.17
2017-04-05T08:45:38.827Z,2.95
2017-04-05T08:46:38.950Z,1.45
2017-04-05T08:47:38.998Z,2.60
2017-04-05T08:48:38.995Z,1.70
2017-04-05T08:49:39.467Z,2.67
2017-04-05T08:50:40.180Z,2.53
2017-04-05T08:51:40.227Z,2.28
2017-04-05T08:52:40.326Z,2.28
2017-04-05T08:53:41.140Z,1.18
2017-04-05T08:54:42.486Z,1.47
2017-04-05T08:55:43.227Z,2.17
2017-04-05T08:56:43.355Z,2.37
2017-04-05T08:57:43.955Z,1.70
2017-04-05T08:58:44.021Z,2.48
2017-04-05T08:59:44.451Z,1.70
2017-04-05T09:00:45.265Z,1.88
2017-04-05T09:01:46.245Z,1.58
2017-04-05T09:02:46.291Z,1.77
2017-04-05T09:03:46.375Z,2.10
2017-04-05T09:04:46.713Z,2.15
2017-04-05T09:05:46.803Z,2.38
2017-04-05T09:06:46.895Z,1.20
2017-04-05T09:07:48.348Z,2.35
2017-04-05T09:08:48.436Z,2.62
2017-04-05T09:09:48.934Z,1.25
2017-04-05T09:10:48.950Z,1.72
2017-04-05T09:11:49.016Z,2.25
2017-04-05T09:12:49.145Z,1.62
2017-04-05T09:13:49.965Z,1.65
2017-04-05T09:14:50.281Z,1.50
2017-04-05T09:15:50.344Z,2.58
2017-04-05T09:16:50.443Z,1.85
2017-04-05T09:17:50.555Z,2.63
2017-04-05T09:18:50.681Z,1.98
2017-04-05T09:19:51.166Z,1.98
2017-04-05T09:20:51.184Z,2.13
2017-04-05T09:21:51.327Z,2.28
2017-04-05T09:22:51.431Z,2.35
2017-04-05T09:23:51.526Z,2.20
2017-04-05T09:24:51.904Z,2.67
2017-04-05T09:25:51.952Z,2.37
2017-04-05T09:26:52.168Z,2.02
2017-04-05T09:27:52.280Z,1.75
2017-04-05T09:28:52.495Z,2.93
2017-04-05T09:29:52.944Z,2.38
2017-04-05T09:30:53.036Z,2.25
2017-04-05T09:31:53.197Z,3.98
2017-04-05T09:32:53.314Z,2.42
2017-04-05T09:33:53.419Z,1.90
2017-04-05T09:34:53.963Z,2.23
2017-04-05T09:35:54.163Z,2.35
2017-04-05T09:36:54.282Z,1.75
2017-04-05T09:37:54.336Z,1.58
2017-04-05T09:38:54.450Z,2.10
2017-04-05T09:39:54.856Z,1.35
2017-04-05T09:40:55.657Z,2.23
2017-04-05T09:41:55.673Z,1.60
2017-04-05T09:42:55.739Z,2.12
2017-04-05T09:43:55.765Z,1.35
2017-04-05T09:44:56.225Z,2.50
2017-04-05T09:45:56.313Z,1.73
2017-04-05T09:46:57.107Z,2.22
2017-04-05T09:47:57.189Z,2.40
2017-04-05T09:48:57.264Z,2.60
2017-04-05T09:49:58.495Z,2.72
2017-04-05T09:50:59.457Z,1.75
2017-04-05T09:51:59.498Z,1.38
2017-04-05T09:52:59.647Z,1.90
2017-04-05T09:53:59.737Z,2.70
2017-04-05T09:55:00.888Z,1.97
2017-04-05T09:56:01.969Z,1.93
2017-04-05T09:57:02.051Z,1.63
2017-04-05T09:58:02.210Z,2.05
2017-04-05T09:59:02.246Z,1.63
2017-04-05T10:00:02.884Z,1.60
2017-04-05T10:01:02.951Z,2.83
2017-04-05T10:02:03.116Z,1.67
2017-04-05T10:03:03.158Z,1.60
2017-04-05T10:04:03.966Z,2.15
2017-04-05T10:05:04.525Z,2.18
2017-04-05T10:06:04.618Z,2.30
2017-04-05T10:07:04.685Z,1.57
2017-04-05T10:08:04.874Z,2.42
2017-04-05T10:09:05.846Z,2.50
2017-04-05T10:10:06.177Z,1.75
2017-04-05T10:11:06.334Z,2.27
2017-04-05T10:12:06.393Z,1.62
2017-04-05T10:13:06.499Z,2.77
2017-04-05T10:14:06.654Z,2.02
2017-04-05T10:15:07.042Z,2.13
2017-04-05T10:16:07.139Z,2.18
2017-04-05T10:17:07.222Z,2.13
2017-04-05T10:18:07.330Z,1.87
2017-04-05T10:19:07.413Z,2.73
2017-04-05T10:20:07.837Z,2.70
2017-04-05T10:21:07.917Z,1.68
2017-04-05T10:22:07.999Z,2.28
2017-04-05T10:23:08.036Z,1.97
2017-04-05T10:24:08.177Z,2.85
2017-04-05T10:25:08.545Z,3.70
2017-04-05T10:26:09.431Z,3.02
2017-04-05T10:27:09.484Z,1.30
2017-04-05T10:28:10.358Z,2.70
2017-04-05T10:29:10.522Z,2.50
2017-04-05T10:30:11.603Z,3.57
2017-04-05T10:31:11.774Z,2.33
2017-04-05T10:32:11.829Z,1.45
2017-04-05T10:33:11.910Z,2.78
2017-04-05T10:34:11.959Z,2.75
2017-04-05T10:35:12.307Z,1.93
2017-04-05T10:36:12.483Z,2.93
2017-04-05T10:37:12.656Z,2.92
2017-04-05T10:38:12.691Z,1.62
2017-04-05T10:39:12.791Z,2.15
2017-04-05T10:40:13.261Z,1.58
2017-04-05T10:41:13.543Z,1.80
2017-04-05T10:42:13.616Z,1.88
2017-04-05T10:43:13.690Z,2.03
2017-04-05T10:44:13.735Z,1.88
2017-04-05T10:45:15.103Z,2.65
2017-04-05T10:46:15.171Z,2.27
2017-04-05T10:47:15.391Z,3.37
2017-04-05T10:48:15.446Z,1.72
2017-04-05T10:49:16.312Z,2.20
2017-04-05T10:50:16.906Z,2.58
2017-04-05T10:51:16.957Z,3.33
2017-04-05T10:52:17.045Z,2.32
2017-04-05T10:53:17.222Z,2.82
2017-04-05T10:54:17.505Z,1.77
2017-04-05T10:55:17.924Z,3.05
2017-04-05T10:56:18.119Z,2.17
2017-04-05T10:57:18.253Z,3.88
2017-04-05T10:58:18.318Z,2.75
2017-04-05T10:59:18.471Z,2.98
2017-04-05T11:00:18.906Z,2.77
2017-04-05T11:01:19.028Z,1.93
2017-04-05T11:02:19.370Z,2.05
2017-04-05T11:03:19.426Z,1.73
2017-04-05T11:04:19.583Z,2.33
2017-04-05T11:05:20.914Z,1.90
2017-04-05T11:06:21.161Z,3.13
2017-04-05T11:07:21.265Z,2.38
2017-04-05T11:08:21.341Z,1.67
2017-04-05T11:09:21.472Z,2.08
2017-04-05T11:10:21.992Z,2.40
2017-04-05T11:11:22.494Z,1.75
2017-04-05T11:12:22.574Z,1.98
2017-04-05T11:13:23.361Z,2.25
2017-04-05T11:14:23.394Z,2.17
2017-04-05T11:15:24.946Z,3.15
2017-04-05T11:16:25.818Z,2.38
2017-04-05T11:17:25.850Z,2.42
2017-04-05T11:18:25.897Z,1.83
2017-04-05T11:19:25.970Z,1.73
2017-04-05T11:20:26.523Z,2.00
2017-04-05T11:21:25.758Z,2.02
2017-04-05T11:22:25.890Z,2.13
2017-04-05T11:23:26.027Z,2.98
2017-04-05T11:24:26.092Z,2.60
2017-04-05T11:25:26.476Z,3.70
2017-04-05T11:26:26.590Z,2.25
2017-04-05T11:27:26.607Z,3.20
2017-04-05T11:28:26.708Z,2.70
2017-04-05T11:29:26.715Z,3.17
2017-04-05T11:30:27.194Z,2.77
2017-04-05T11:31:28.045Z,2.40
2017-04-05T11:32:28.134Z,2.38
2017-04-05T11:33:28.202Z,2.27
2017-04-05T11:34:28.292Z,2.63
2017-04-05T11:35:28.748Z,2.92
2017-04-05T11:36:28.916Z,1.88
2017-04-05T11:37:29.070Z,1.78
2017-04-05T11:38:29.175Z,2.10
2017-04-05T11:39:29.370Z,1.90
2017-04-05T11:40:30.029Z,3.15
2017-04-05T11:41:30.114Z,2.45
2017-04-05T11:42:30.166Z,3.02
2017-04-05T11:43:31.033Z,2.78
2017-04-05T11:44:31.108Z,2.18
2017-04-05T11:45:31.454Z,2.67
2017-04-05T11:46:31.583Z,2.77
2017-04-05T11:47:31.852Z,4.02
2017-04-05T11:48:31.964Z,3.97
2017-04-05T11:49:32.010Z,3.93
2017-04-05T11:50:32.495Z,2.75
2017-04-05T11:51:32.638Z,2.15
2017-04-05T11:52:33.423Z,2.80
2017-04-05T11:53:33.618Z,2.22
2017-04-05T11:54:33.738Z,2.90
2017-04-05T11:55:34.216Z,2.62
2017-04-05T11:56:34.324Z,3.53
2017-04-05T11:57:35.087Z,1.68
2017-04-05T11:58:35.097Z,1.93
2017-04-05T11:59:35.095Z,2.13
2017-04-05T12:00:35.460Z,2.85
2017-04-05T12:01:35.498Z,3.75
2017-04-05T12:02:35.530Z,3.25
2017-04-05T12:03:35.530Z,3.03
2017-04-05T12:04:35.604Z,4.28
2017-04-05T12:05:36.014Z,5.18
2017-04-05T12:06:36.884Z,2.10
2017-04-05T12:07:37.144Z,2.08
2017-04-05T12:08:37.225Z,3.65
2017-04-05T12:09:37.290Z,3.08
2017-04-05T12:10:37.627Z,2.45
2017-04-05T12:11:37.734Z,3.02
2017-04-05T12:12:38.642Z,1.55
2017-04-05T12:13:38.720Z,2.02
2017-04-05T12:14:38.887Z,1.68
2017-04-05T12:15:39.477Z,3.00
2017-04-05T12:16:39.541Z,3.25
2017-04-05T12:17:39.656Z,2.10
2017-04-05T12:18:39.696Z,2.08
2017-04-05T12:19:39.742Z,2.30
2017-04-05T12:20:40.325Z,2.50
2017-04-05T12:21:40.547Z,1.90
2017-04-05T12:22:40.682Z,2.23
2017-04-05T12:23:40.650Z,1.55
2017-04-05T12:24:41.447Z,2.82
2017-04-05T12:25:41.885Z,2.97
2017-04-05T12:26:42.837Z,1.92
2017-04-05T12:27:42.954Z,2.23
2017-04-05T12:28:43.197Z,1.93
2017-04-05T12:29:43.340Z,2.28
2017-04-05T12:30:43.407Z,2.52
2017-04-05T12:31:43.609Z,1.97
2017-04-05T12:32:43.926Z,2.62
2017-04-05T12:33:43.963Z,2.97
2017-04-05T12:34:44.072Z,1.87
2017-04-05T12:35:44.538Z,2.37
2017-04-05T12:36:44.598Z,3.07
2017-04-05T12:37:45.548Z,1.77
2017-04-05T12:38:45.673Z,1.97
2017-04-05T12:39:45.771Z,2.63
2017-04-05T12:40:47.030Z,1.40
2017-04-05T12:41:47.073Z,2.48
2017-04-05T12:44:46.087Z,2.12
2017-04-05T12:45:46.287Z,2.30
2017-04-05T12:46:46.425Z,2.30
2017-04-05T12:47:46.617Z,2.37
2017-04-05T12:48:46.745Z,2.05
2017-04-05T12:49:46.902Z,2.27
2017-04-05T12:50:47.099Z,2.38
2017-04-05T12:51:47.667Z,2.68
2017-04-05T12:52:48.601Z,2.35
2017-04-05T12:53:48.654Z,1.33
2017-04-05T12:54:48.698Z,2.57
2017-04-05T12:55:48.762Z,2.40
2017-04-05T12:56:49.371Z,3.07
2017-04-05T12:57:49.463Z,2.80
2017-04-05T12:58:49.538Z,2.17
2017-04-05T12:59:49.609Z,2.40
2017-04-05T13:00:49.733Z,2.42
2017-04-05T13:01:50.206Z,1.97
2017-04-05T13:02:50.980Z,1.78
2017-04-05T13:03:51.163Z,2.42
2017-04-05T13:04:51.206Z,3.32
2017-04-05T13:05:51.944Z,1.68
2017-04-05T13:06:52.366Z,2.42
2017-04-05T13:07:52.450Z,2.20
2017-04-05T13:08:52.515Z,1.55
2017-04-05T13:09:52.651Z,2.48
2017-04-05T13:10:52.777Z,2.37
2017-04-05T13:11:53.410Z,2.58
2017-04-05T13:12:53.529Z,2.65